Impacts METAR Board INFO
IDs:

KATL - Atlanta/Hartsfield-J, GA, US

Updated at: 0852 UTC 19 Nov 2017
Potential Impact None Slight Moderate High
Time18/20Z 18/21Z 18/22Z 18/23Z 19/00Z 19/01Z 19/02Z 19/03Z 19/04Z 19/05Z 19/06Z 19/07Z 19/08Z
VIS10 10 10 10 10 10 10 10 4 10 10 10 10
CIG30 35 32 28 27 70 50 24 28 60 20 22 28
CoverOVCOVCOVCOVCOVCOVCOVCOVCOVCOVCOVCOVCOVC
FltCatMVFRVFRVFRMVFRMVFRVFRVFRMVFRMVFRVFRMVFRMVFRMVFR
WX----------------RA BR---RA----
WDir210210190190200200200210310300300310330
WSpd12 7 11 9 10 12 10 12 18 20 17 18 19
WGst21 -- -- -- -- 19 18 23 31 31 31 28 27
Raw hourly METARs
KATL 181952Z 21012G21KT 10SM BKN030 OVC035 19/14 A2982 RMK AO2 SLP095 T01940144
KATL 182052Z 21007KT 10SM BKN035 OVC045 19/14 A2981 RMK AO2 SLP092 T01940144 56023
KATL 182152Z 19011KT 10SM BKN032 BKN040 OVC055 19/14 A2979 RMK AO2 SLP085 BINOVC T01940144
KATL 182252Z 19009KT 10SM BKN028 BKN055 OVC200 19/15 A2977 RMK AO2 SLP080 T01940150
KATL 182352Z 20010KT 10SM BKN027 BKN038 OVC065 19/15 A2976 RMK AO2 SLP074 T01940150 10200 20183 56018
KATL 190052Z 20012G19KT 10SM FEW028 OVC070 19/16 A2973 RMK AO2 SLP065 BINOVC T01890156
KATL 190152Z 20010G18KT 10SM FEW024 BKN050 OVC075 19/16 A2972 RMK AO2 SLP059 T01940161
KATL 190252Z 21012G23KT 10SM BKN024 BKN042 OVC085 20/17 A2968 RMK AO2 PK WND 21027/0220 SLP047 T02000167 58024
KATL 190359Z 31018G31KT 4SM RA BR SCT018 BKN028CB OVC060 14/14 A2974 RMK AO2 PK WND 31030/0354 WSHFT 0342 FROPA CB NE-SE-SW MOV SE P0003 T01440139
KATL 190452Z 30020G31KT 10SM SCT016 BKN060 OVC095 14/12 A2976 RMK AO2 PK WND 30031/0447 WSHFT 0342 RAE37 SLP074 P0005 T01390122 402060072
KATL 190552Z 30017G31KT 10SM -RA BKN020 OVC065 12/10 A2980 RMK AO2 PK WND 30033/0519 RAB0458E15B22 SLP090 P0000 60030 T01170100 10206 20117 51040
KATL 190652Z 31018G28KT 10SM BKN022 BKN028 OVC065 11/08 A2984 RMK AO2 PK WND 31032/0606 RAE0557 SLP101 CIG 018V025 P0000 T01060083
KATL 190752Z 33019G27KT 10SM BKN028 OVC065 09/06 A2987 RMK AO2 PK WND 35031/0724 SLP111 T00940056